Time;durP1;ratioP1;P1;durP2;ratioP2;P2;SDS_P1;SDS_P2;PMS_P1;PMS_P2;Temp;Humidity;BMP_temperature;BMP_pressure;BME280_temperature;BME280_humidity;BME280_pressure;Samples;Min_cycle;Max_cycle;Signal;HPM_P1;HPM_P2
2023/05/22 00:00:18;;;;;;;;;23.67;22.33;;;;;15.35;100.00;99535.75;6277933;20;3580510;-62
2023/05/22 00:02:47;;;;;;;;;23.33;23.33;;;;;15.31;100.00;99543.22;6280816;20;3594125;-62
2023/05/22 00:05:17;;;;;;;;;27.00;24.00;;;;;15.52;100.00;99548.69;6280770;20;3585686;-62
2023/05/22 00:07:45;;;;;;;;;24.50;21.00;;;;;15.44;100.00;99543.06;6277340;20;2850242;-62
2023/05/22 00:10:13;;;;;;;;;24.00;22.00;;;;;15.53;100.00;99533.31;6278227;20;2840922;-62
2023/05/22 00:12:42;;;;;;;;;20.33;20.33;;;;;15.48;100.00;99536.41;6276506;20;2483678;-62
2023/05/22 00:15:10;;;;;;;;;25.00;20.00;;;;;15.66;99.58;99538.53;6311181;20;3573321;-62
2023/05/22 00:17:39;;;;;;;;;24.00;21.50;;;;;15.51;99.72;99546.97;6274731;20;2846112;-62
2023/05/22 00:20:09;;;;;;;;;24.00;22.50;;;;;15.43;100.00;99548.59;6275442;20;2846144;-62
2023/05/22 00:22:39;;;;;;;;;20.33;19.33;;;;;15.45;100.00;99547.47;6274847;20;2848298;-62
2023/05/22 00:25:08;;;;;;;;;24.67;24.00;;;;;15.41;100.00;99545.19;6181602;20;3589876;-62
2023/05/22 00:27:36;;;;;;;;;23.50;22.00;;;;;15.39;100.00;99534.47;6272568;20;2837819;-62
2023/05/22 00:30:06;;;;;;;;;22.00;20.00;;;;;15.06;100.00;99536.31;6274868;20;2835758;-62
2023/05/22 00:32:34;;;;;;;;;25.67;25.33;;;;;14.97;100.00;99530.78;6278199;20;3594098;-62
2023/05/22 00:35:05;;;;;;;;;27.33;25.00;;;;;14.76;100.00;99533.41;6275516;20;3602344;-62
2023/05/22 00:37:33;;;;;;;;;24.33;22.33;;;;;14.96;100.00;99529.94;6309988;20;3585798;-62
2023/05/22 00:40:04;;;;;;;;;29.67;24.33;;;;;14.95;100.00;99533.63;6275972;20;3606505;-62
2023/05/22 00:42:32;;;;;;;;;21.67;21.67;;;;;14.89;100.00;99526.00;6313384;20;3579407;-62
2023/05/22 00:45:00;;;;;;;;;25.00;23.50;;;;;14.88;100.00;99533.28;6276210;20;2844011;-62
2023/05/22 00:47:31;;;;;;;;;23.33;21.67;;;;;14.66;100.00;99512.53;6275532;20;2848720;-62
2023/05/22 00:49:59;;;;;;;;;23.00;22.00;;;;;14.80;100.00;99510.56;6311433;20;3581523;-61
2023/05/22 00:52:27;;;;;;;;;22.67;21.67;;;;;14.49;100.00;99526.53;6278243;20;3573234;-62
2023/05/22 00:54:55;;;;;;;;;25.00;25.00;;;;;14.14;100.00;99522.09;6278326;20;3582649;-62
2023/05/22 00:57:24;;;;;;;;;26.00;25.00;;;;;14.40;100.00;99532.66;6274383;20;2852360;-62
2023/05/22 00:59:53;;;;;;;;;27.67;25.00;;;;;14.77;100.00;99527.00;6251751;20;3581680;-61
2023/05/22 01:02:22;;;;;;;;;26.00;25.67;;;;;14.96;100.00;99524.53;6308200;20;3589918;-62
2023/05/22 01:04:54;;;;;;;;;25.00;23.00;;;;;14.93;100.00;99520.25;6275479;20;2834794;-62
2023/05/22 01:07:23;;;;;;;;;25.33;24.33;;;;;14.66;100.00;99509.81;6308500;20;3593207;-62
2023/05/22 01:09:51;;;;;;;;;24.00;21.00;;;;;14.61;100.00;99516.59;6281884;20;2842040;-62
2023/05/22 01:13:11;;;;;;;;;25.00;22.33;;;;;14.76;100.00;99519.91;6284163;20;3594169;-62
2023/05/22 01:16:29;;;;;;;;;20.00;20.00;;;;;14.48;100.00;99511.28;6280753;20;2845607;-62
2023/05/22 01:19:38;;;;;;;;;21.50;21.00;;;;;14.15;100.00;99504.91;6282390;20;2848289;-62
2023/05/22 01:22:41;;;;;;;;;21.00;21.00;;;;;14.35;100.00;99516.84;6282774;20;2844040;-62
2023/05/22 01:25:44;;;;;;;;;25.00;22.00;;;;;14.25;100.00;99514.00;6281688;20;2847257;-62
2023/05/22 01:28:41;;;;;;;;;20.50;19.50;;;;;14.49;100.00;99518.41;6281030;20;2846106;-62
2023/05/22 01:31:16;;;;;;;;;22.00;21.50;;;;;14.38;100.00;99513.03;6280313;20;2846263;-62
2023/05/22 01:33:49;;;;;;;;;21.33;19.00;;;;;14.62;98.38;99513.78;6282658;20;2832659;-62
2023/05/22 01:36:21;;;;;;;;;20.00;19.33;;;;;14.71;97.09;99521.13;6315634;20;3564891;-61
2023/05/22 01:38:53;;;;;;;;;20.25;18.75;;;;;14.45;96.87;99525.88;6339126;20;3593014;-61
2023/05/22 01:41:20;;;;;;;;;23.50;19.00;;;;;14.20;98.74;99534.25;6280830;20;2496197;-62
2023/05/22 01:43:48;;;;;;;;;17.00;17.00;;;;;14.33;98.72;99536.84;6281378;20;2837925;-61
2023/05/22 01:46:16;;;;;;;;;24.00;22.00;;;;;14.48;97.99;99541.00;6275225;20;2498822;-61
2023/05/22 01:48:43;;;;;;;;;22.00;19.00;;;;;14.47;97.95;99534.75;6279458;20;2496140;-61
2023/05/22 01:51:37;;;;;;;;;24.00;21.00;;;;;14.30;99.73;99531.66;6279163;20;2842982;-61
2023/05/22 01:54:17;;;;;;;;;18.50;18.50;;;;;14.14;99.91;99538.31;6279308;20;2828602;-61
2023/05/22 01:56:58;;;;;;;;;21.00;21.00;;;;;13.93;100.00;99523.75;6279780;20;2842124;-61
2023/05/22 01:59:48;;;;;;;;;22.50;19.50;;;;;14.04;99.78;99519.25;6279211;20;2839859;-61
2023/05/22 02:02:19;;;;;;;;;21.67;21.67;;;;;14.19;99.08;99521.72;6281759;20;3577088;-61
2023/05/22 02:04:55;;;;;;;;;20.00;20.00;;;;;14.01;100.00;99522.22;6279437;20;2833647;-61
2023/05/22 02:07:24;;;;;;;;;20.00;20.00;;;;;13.91;100.00;99517.66;6275157;20;2833703;-61
2023/05/22 02:09:55;;;;;;;;;24.00;22.00;;;;;14.19;99.85;99519.91;6278242;20;2824249;-61
2023/05/22 02:12:24;;;;;;;;;21.00;21.00;;;;;14.24;99.20;99514.09;6278090;20;2833756;-61
2023/05/22 02:14:52;;;;;;;;;21.00;20.00;;;;;14.12;99.05;99512.41;6280397;20;2843037;-61
2023/05/22 02:17:20;;;;;;;;;21.50;18.00;;;;;14.08;100.00;99510.91;6274730;20;2500374;-61
2023/05/22 02:19:49;;;;;;;;;19.00;19.00;;;;;13.95;100.00;99506.47;6283223;20;2835732;-61
2023/05/22 02:22:17;;;;;;;;;21.00;21.00;;;;;14.03;100.00;99504.06;6277756;20;2838867;-61
2023/05/22 02:24:48;;;;;;;;;19.50;17.00;;;;;14.08;100.00;99498.28;6281361;20;2835686;-61
2023/05/22 02:27:17;;;;;;;;;20.00;19.00;;;;;13.89;100.00;99498.88;6280726;20;2819131;-61
2023/05/22 02:29:45;;;;;;;;;22.00;19.00;;;;;14.10;100.00;99499.00;6282819;20;2828399;-61
2023/05/22 02:32:13;;;;;;;;;21.50;21.50;;;;;13.78;100.00;99497.00;6275789;20;2845104;-61
2023/05/22 02:34:42;;;;;;;;;21.00;20.00;;;;;13.80;100.00;99496.91;6281559;20;2846488;-61
2023/05/22 02:37:12;;;;;;;;;20.67;19.00;;;;;13.86;100.00;99493.72;6280879;20;3581585;-61
2023/05/22 02:39:40;;;;;;;;;22.50;22.00;;;;;13.78;100.00;99502.41;6279533;20;2839382;-61
2023/05/22 02:42:08;;;;;;;;;20.00;19.00;;;;;13.53;100.00;99497.19;6279428;20;2840994;-61
2023/05/22 02:44:36;;;;;;;;;21.00;20.00;;;;;13.55;100.00;99487.13;6280636;20;2838859;-62
2023/05/22 02:47:05;;;;;;;;;21.00;20.00;;;;;13.58;100.00;99497.69;6279111;20;2831758;-62
2023/05/22 02:49:33;;;;;;;;;24.50;20.50;;;;;13.77;100.00;99498.00;6279489;20;2846111;-62
2023/05/22 02:52:01;;;;;;;;;20.00;20.00;;;;;13.51;100.00;99496.47;6278823;20;2840995;-61
2023/05/22 02:54:30;;;;;;;;;19.00;19.00;;;;;13.74;100.00;99497.34;6266047;20;2829192;-62
2023/05/22 02:56:58;;;;;;;;;22.00;20.00;;;;;13.75;100.00;99494.56;6276169;20;2838861;-61
2023/05/22 02:59:26;;;;;;;;;21.00;20.00;;;;;13.73;100.00;99490.25;6280255;20;2837741;-61
2023/05/22 03:01:54;;;;;;;;;17.67;15.67;;;;;13.89;100.00;99498.00;6279446;20;3558617;-61
2023/05/22 03:04:23;;;;;;;;;20.00;18.00;;;;;13.86;100.00;99498.25;6281117;20;2842034;-61
2023/05/22 03:06:51;;;;;;;;;21.50;19.50;;;;;13.86;100.00;99509.06;6279091;20;2836911;-62
2023/05/22 03:09:19;;;;;;;;;23.50;20.00;;;;;13.95;100.00;99508.31;6280828;20;2844123;-62
2023/05/22 03:11:47;;;;;;;;;20.50;19.00;;;;;13.93;100.00;99503.06;6279525;20;2821242;-61
2023/05/22 03:14:16;;;;;;;;;16.50;15.50;;;;;14.08;99.77;99506.38;6280791;20;2822124;-61
2023/05/22 03:16:43;;;;;;;;;21.00;19.00;;;;;14.33;97.31;99502.59;6279380;20;2491977;-61
2023/05/22 03:19:16;;;;;;;;;17.00;17.00;;;;;14.16;97.42;99500.38;6277934;20;2820145;-62
2023/05/22 03:21:44;;;;;;;;;23.00;20.50;;;;;14.24;97.92;99506.91;6281147;20;2824671;-62
2023/05/22 03:24:13;;;;;;;;;16.00;16.00;;;;;14.31;96.98;99501.84;6279622;20;2833712;-62
2023/05/22 03:26:43;;;;;;;;;24.00;21.00;;;;;14.32;96.27;99503.56;6277773;20;2486022;-61
2023/05/22 03:29:11;;;;;;;;;20.50;20.50;;;;;14.36;96.08;99504.19;6281654;20;2837768;-62
2023/05/22 03:31:40;;;;;;;;;16.00;16.00;;;;;14.32;96.14;99495.44;6278424;20;3552451;-62
2023/05/22 03:34:08;;;;;;;;;20.00;20.00;;;;;14.33;95.70;99510.69;6278214;20;2841984;-61
2023/05/22 03:36:35;;;;;;;;;19.00;19.00;;;;;14.36;95.38;99505.03;6279958;20;2838788;-61
2023/05/22 03:39:04;;;;;;;;;18.50;18.50;;;;;14.35;95.55;99507.84;6279061;20;2831561;-61
2023/05/22 03:41:32;;;;;;;;;19.00;18.00;;;;;14.45;93.95;99503.44;6281219;20;2833635;-61
2023/05/22 03:44:01;;;;;;;;;14.00;14.00;;;;;14.55;93.43;99498.19;6275237;20;2498231;-61
2023/05/22 03:46:29;;;;;;;;;21.00;19.50;;;;;14.62;92.89;99494.00;6276604;20;2496364;-61
2023/05/22 03:48:57;;;;;;;;;19.50;18.00;;;;;14.61;92.46;99497.69;6281357;20;2827378;-61
2023/05/22 03:51:24;;;;;;;;;17.50;15.50;;;;;14.53;92.68;99492.88;6278901;20;2487801;-61
2023/05/22 03:53:53;;;;;;;;;23.00;20.50;;;;;14.52;94.06;99493.84;6280955;20;2840931;-61
2023/05/22 03:56:21;;;;;;;;;18.00;18.00;;;;;14.60;93.92;99491.41;6278052;20;2823316;-62
2023/05/22 03:58:49;;;;;;;;;16.00;16.00;;;;;14.61;92.96;99487.75;6277072;20;2819728;-62
2023/05/22 04:01:17;;;;;;;;;19.00;17.50;;;;;14.87;92.11;99490.13;6275027;20;2491992;-61
2023/05/22 04:03:44;;;;;;;;;14.50;13.00;;;;;15.10;90.22;99486.38;6281123;20;2805499;-62
2023/05/22 04:06:13;;;;;;;;;15.33;15.33;;;;;15.30;87.75;99489.28;6280391;20;2820160;-62
2023/05/22 04:08:41;;;;;;;;;14.00;13.00;;;;;15.37;86.80;99485.03;6309678;20;3403448;-62
2023/05/22 04:11:09;;;;;;;;;16.33;16.33;;;;;15.40;87.67;99494.75;6302506;20;3560842;-62
2023/05/22 04:13:37;;;;;;;;;13.00;13.00;;;;;15.48;86.97;99495.84;6268435;20;2802324;-62
2023/05/22 04:16:05;;;;;;;;;16.00;14.67;;;;;15.54;87.78;99498.00;6278229;20;3550271;-62
2023/05/22 04:18:33;;;;;;;;;14.67;13.67;;;;;15.63;86.38;99500.91;6278103;20;3540995;-62
2023/05/22 04:21:37;;;;;;;;;12.00;12.00;;;;;15.65;84.36;99488.97;6311285;20;3504538;-62
2023/05/22 04:24:09;;;;;;;;;12.67;12.67;;;;;15.84;84.32;99499.09;6309535;20;3512886;-62
2023/05/22 04:26:37;;;;;;;;;12.00;12.00;;;;;16.02;84.63;99499.34;6311720;20;2788809;-62
2023/05/22 04:29:09;;;;;;;;;14.00;14.00;;;;;16.11;83.51;99500.38;6277476;20;2803432;-62
2023/05/22 04:31:37;;;;;;;;;11.00;11.00;;;;;16.17;82.60;99505.28;6280318;20;3512803;-62
2023/05/22 04:34:06;;;;;;;;;11.00;11.00;;;;;16.38;82.00;99503.38;6307814;20;3514958;-62
2023/05/22 04:36:34;;;;;;;;;18.67;16.67;;;;;16.71;81.39;99509.50;6309012;20;3562810;-62
2023/05/22 04:39:02;;;;;;;;;13.00;11.00;;;;;17.12;80.25;99510.34;6309148;20;2792013;-62
2023/05/22 04:41:31;;;;;;;;;13.00;12.00;;;;;17.52;78.81;99514.78;6314852;20;2790968;-62
2023/05/22 04:43:59;;;;;;;;;10.00;10.00;;;;;18.26;73.78;99516.84;6281853;20;2789921;-63
2023/05/22 04:46:27;;;;;;;;;12.33;12.33;;;;;18.08;74.70;99524.88;6282107;20;3515865;-62
2023/05/22 04:48:54;;;;;;;;;14.50;13.00;;;;;17.72;76.24;99524.66;6320940;20;2793055;-62
2023/05/22 04:51:22;;;;;;;;;11.00;11.00;;;;;17.48;79.73;99521.47;6289242;20;2794029;-62
2023/05/22 04:53:50;;;;;;;;;14.00;12.00;;;;;17.33;81.40;99529.22;6280253;20;3522182;-62
2023/05/22 04:56:18;;;;;;;;;12.00;12.00;;;;;17.52;80.06;99518.34;6314750;20;2796180;-62
2023/05/22 04:59:03;;;;;;;;;11.00;9.50;;;;;17.76;76.05;99523.34;6266369;20;2776536;-62
2023/05/22 05:01:31;;;;;;;;;13.00;11.67;;;;;17.55;76.92;99522.63;6263118;20;2807654;-63
2023/05/22 05:04:00;;;;;;;;;11.00;10.00;;;;;17.64;77.68;99521.78;6315838;20;2789913;-62
2023/05/22 05:06:28;;;;;;;;;9.00;9.00;;;;;17.73;76.66;99531.78;6287983;20;2760725;-62
2023/05/22 05:08:56;;;;;;;;;11.33;11.33;;;;;17.57;80.45;99533.38;6287434;20;2800305;-62
2023/05/22 05:11:24;;;;;;;;;13.33;11.00;;;;;17.68;79.53;99525.91;6301821;20;3518051;-62
2023/05/22 05:13:52;;;;;;;;;12.00;10.67;;;;;17.74;77.52;99525.34;6260215;20;3510889;-63
2023/05/22 05:16:20;;;;;;;;;12.00;11.00;;;;;17.91;78.22;99525.66;6313243;20;2789057;-62
2023/05/22 05:18:47;;;;;;;;;12.00;12.00;;;;;17.84;79.42;99521.78;6285684;20;2789901;-62
2023/05/22 05:21:15;;;;;;;;;13.00;13.00;;;;;17.80;78.83;99531.22;6286145;20;2788838;-62
2023/05/22 05:23:43;;;;;;;;;13.00;11.50;;;;;18.16;77.87;99535.03;6287829;20;2798197;-63
2023/05/22 05:26:10;;;;;;;;;11.50;11.50;;;;;18.14;77.84;99540.63;6287578;20;2781594;-62
2023/05/22 05:28:38;;;;;;;;;13.50;13.00;;;;;18.34;77.53;99540.56;6291923;20;2793100;-62
2023/05/22 05:31:06;;;;;;;;;12.00;10.00;;;;;18.21;75.71;99543.59;6284190;20;3520063;-62
2023/05/22 05:33:34;;;;;;;;;11.67;10.67;;;;;18.31;76.13;99549.88;6282836;20;3511814;-63
2023/05/22 05:36:03;;;;;;;;;11.67;11.67;;;;;18.28;78.44;99543.88;6313732;20;3509649;-62
2023/05/22 05:38:31;;;;;;;;;16.00;12.00;;;;;18.52;73.56;99546.09;6314098;20;3528548;-62
2023/05/22 05:40:59;;;;;;;;;12.00;12.00;;;;;18.58;74.53;99556.34;6312192;20;2787952;-62
2023/05/22 05:43:26;;;;;;;;;12.50;10.50;;;;;18.24;76.59;99558.75;6320812;20;2788949;-62
2023/05/22 05:45:53;;;;;;;;;13.50;13.00;;;;;18.33;78.71;99564.19;6287090;20;2807737;-62
2023/05/22 05:48:21;;;;;;;;;12.50;12.50;;;;;18.43;77.54;99558.69;6286064;20;2805920;-62
2023/05/22 05:50:49;;;;;;;;;11.67;9.33;;;;;18.72;79.12;99557.72;6282411;20;2767127;-62
2023/05/22 05:53:17;;;;;;;;;10.67;10.67;;;;;19.30;75.21;99558.31;6307373;20;3514340;-62
2023/05/22 05:55:44;;;;;;;;;12.50;12.50;;;;;19.16;71.71;99556.09;6319046;20;2800300;-62
2023/05/22 05:58:12;;;;;;;;;12.00;12.00;;;;;19.48;70.60;99555.63;6284649;20;3516159;-62
2023/05/22 06:00:41;;;;;;;;;11.67;11.00;;;;;19.79;71.32;99562.56;6316619;20;2786788;-63
2023/05/22 06:03:09;;;;;;;;;10.00;10.00;;;;;19.74;72.65;99565.75;6319647;20;2783723;-63
2023/05/22 06:05:37;;;;;;;;;13.33;10.67;;;;;19.76;71.80;99566.44;6291195;20;2791970;-62
2023/05/22 06:08:07;;;;;;;;;14.00;12.00;;;;;19.61;70.92;99573.41;6313272;20;3519028;-63
2023/05/22 06:10:36;;;;;;;;;16.67;11.00;;;;;19.92;69.17;99566.59;6315294;20;3529445;-62
2023/05/22 06:13:05;;;;;;;;;12.67;9.67;;;;;20.08;67.48;99567.72;6287540;20;2786764;-63
2023/05/22 06:15:33;;;;;;;;;9.33;9.00;;;;;20.29;65.73;99565.50;6308888;20;3475376;-63
2023/05/22 06:18:01;;;;;;;;;13.33;11.67;;;;;20.31;67.15;99551.72;6315068;20;2483699;-63
2023/05/22 06:20:30;;;;;;;;;13.67;12.67;;;;;20.10;67.49;99565.72;6314310;20;3514992;-63
2023/05/22 06:22:58;;;;;;;;;12.67;11.00;;;;;20.59;65.53;99566.09;6320206;20;2797136;-64
2023/05/22 06:25:28;;;;;;;;;12.33;11.67;;;;;20.77;66.72;99579.63;6317929;20;2801337;-63
2023/05/22 06:27:57;;;;;;;;;13.00;11.67;;;;;20.93;64.82;99574.28;6314399;20;3545066;-63
2023/05/22 06:30:25;;;;;;;;;11.00;11.00;;;;;20.56;63.56;99574.56;6284246;20;3530464;-63
2023/05/22 06:33:06;;;;;;;;;11.33;11.33;;;;;20.74;63.63;99569.88;6315050;20;3521121;-62
2023/05/22 06:35:35;;;;;;;;;11.67;10.33;;;;;21.36;60.40;99579.72;6313304;20;2789961;-63
2023/05/22 06:38:03;;;;;;;;;8.00;8.00;;;;;21.97;58.80;99569.41;6319433;20;2756572;-63
2023/05/22 06:40:31;;;;;;;;;11.33;10.00;;;;;22.31;57.39;99575.56;6320874;20;2793044;-63
2023/05/22 06:43:00;;;;;;;;;8.80;8.80;;;;;22.10;56.95;99569.75;6341068;20;2752414;-64
2023/05/22 06:45:29;;;;;;;;;11.67;10.67;;;;;22.15;51.29;99567.34;6282905;20;3509779;-64
2023/05/22 06:47:57;;;;;;;;;10.00;8.33;;;;;23.09;52.77;99570.41;6315125;20;2758605;-63
2023/05/22 06:50:26;;;;;;;;;10.00;9.00;;;;;23.31;50.63;99574.25;6327918;20;2777373;-63
2023/05/22 06:52:55;;;;;;;;;5.80;5.80;;;;;23.02;49.96;99572.19;6304699;20;2739852;-63
2023/05/22 06:55:23;;;;;;;;;9.67;7.67;;;;;23.38;48.94;99565.16;6304542;20;2772277;-63
2023/05/22 06:57:51;;;;;;;;;10.00;8.67;;;;;22.88;48.61;99571.84;6292746;20;2771354;-63
2023/05/22 07:00:19;;;;;;;;;7.33;7.33;;;;;23.20;48.61;99578.25;6317602;20;2739289;-63
2023/05/22 07:02:49;;;;;;;;;8.00;8.00;;;;;23.59;47.26;99580.94;6340343;20;2752363;-63
2023/05/22 07:05:18;;;;;;;;;5.00;5.00;;;;;23.64;46.17;99583.13;6285654;20;2732566;-64
2023/05/22 07:07:47;;;;;;;;;9.20;8.00;;;;;23.90;48.17;99587.44;6333998;20;2746106;-63
2023/05/22 07:10:15;;;;;;;;;8.00;7.00;;;;;23.74;46.91;99583.78;6279507;20;2742027;-63
2023/05/22 07:12:43;;;;;;;;;9.00;8.33;;;;;22.77;50.20;99574.94;6321737;20;2760863;-64
2023/05/22 07:15:13;;;;;;;;;8.00;6.67;;;;;22.97;50.95;99573.53;6317260;20;2739921;-64
2023/05/22 07:17:41;;;;;;;;;8.67;8.33;;;;;22.74;50.73;99569.81;6314311;20;2745149;-64
2023/05/22 07:20:10;;;;;;;;;10.00;7.33;;;;;22.50;51.72;99574.34;6310191;20;2775492;-64
2023/05/22 07:22:38;;;;;;;;;8.00;8.00;;;;;22.43;50.56;99575.19;6313959;20;2754447;-63
2023/05/22 07:25:07;;;;;;;;;9.00;8.33;;;;;21.73;51.95;99562.91;6311146;20;2749285;-63
2023/05/22 07:27:36;;;;;;;;;10.80;9.00;;;;;21.64;52.85;99567.50;6337791;20;2758685;-63
2023/05/22 07:30:05;;;;;;;;;7.00;4.00;;;;;21.57;52.29;99568.34;6292282;20;2734840;-63
2023/05/22 07:32:33;;;;;;;;;11.00;8.67;;;;;21.69;53.52;99573.28;6310490;20;3487890;-63
2023/05/22 07:35:02;;;;;;;;;10.33;10.33;;;;;21.92;52.17;99569.91;6290585;20;3507704;-63
2023/05/22 07:37:30;;;;;;;;;10.00;10.00;;;;;22.50;53.35;99563.38;6301489;20;3513911;-64
2023/05/22 07:39:58;;;;;;;;;8.67;8.67;;;;;22.23;54.16;99569.25;6309774;20;2756575;-64
2023/05/22 07:42:28;;;;;;;;;10.00;10.00;;;;;21.63;52.95;99565.78;6319259;20;2786877;-63
2023/05/22 07:44:56;;;;;;;;;9.33;8.00;;;;;21.86;52.59;99562.41;6314887;20;2766981;-64
2023/05/22 07:47:24;;;;;;;;;8.00;8.00;;;;;21.46;53.97;99558.59;6312548;20;2748214;-63
2023/05/22 07:49:53;;;;;;;;;4.00;4.00;;;;;21.25;56.24;99557.16;6339538;20;2746163;-63
2023/05/22 07:52:22;;;;;;;;;11.67;10.00;;;;;20.98;56.57;99565.56;6289879;20;2791981;-63
2023/05/22 07:54:50;;;;;;;;;8.00;8.00;;;;;21.66;58.46;99576.38;6321009;20;2752410;-63
2023/05/22 07:57:19;;;;;;;;;7.33;7.33;;;;;22.52;54.82;99572.28;6320781;20;2742047;-63
2023/05/22 07:59:47;;;;;;;;;9.00;9.00;;;;;22.80;52.17;99571.84;6319268;20;2744118;-63
2023/05/22 08:02:19;;;;;;;;;9.67;8.00;;;;;24.39;48.31;99581.53;6320994;20;2764890;-64
2023/05/22 08:04:49;;;;;;;;;8.00;8.00;;;;;25.10;48.78;99579.22;6322028;20;2746130;-64
2023/05/22 08:07:18;;;;;;;;;11.40;8.60;;;;;23.58;50.86;99578.38;6332195;20;2761737;-63
2023/05/22 08:09:46;;;;;;;;;7.67;7.67;;;;;22.18;50.98;99582.56;6294627;20;2741714;-63
2023/05/22 08:12:14;;;;;;;;;10.67;9.33;;;;;22.20;52.74;99586.03;6311223;20;2785866;-63
2023/05/22 08:14:42;;;;;;;;;12.67;9.00;;;;;22.03;53.37;99583.22;6304079;20;2771180;-64
2023/05/22 08:17:10;;;;;;;;;8.00;6.67;;;;;21.83;54.69;99581.88;6315961;20;2734810;-63
2023/05/22 08:19:39;;;;;;;;;9.60;8.00;;;;;21.47;54.65;99576.69;6321842;20;2753534;-63
2023/05/22 08:22:07;;;;;;;;;10.00;8.33;;;;;21.57;55.65;99574.66;6279951;20;3481679;-63
2023/05/22 08:24:37;;;;;;;;;11.00;9.40;;;;;21.48;55.04;99581.13;6322362;20;2781709;-63
2023/05/22 08:27:05;;;;;;;;;8.33;6.00;;;;;21.78;55.77;99589.72;6287585;20;2743000;-63
2023/05/22 08:29:33;;;;;;;;;10.00;10.00;;;;;21.60;55.28;99582.53;6295258;20;2775491;-63
2023/05/22 08:32:01;;;;;;;;;11.00;8.00;;;;;21.65;54.98;99579.28;6289655;20;2770761;-63
2023/05/22 08:34:31;;;;;;;;;7.67;7.67;;;;;21.72;55.90;99577.56;6293424;20;2748361;-64
2023/05/22 08:37:00;;;;;;;;;6.60;6.60;;;;;21.94;54.40;99573.34;6340224;20;2741001;-64
2023/05/22 08:39:30;;;;;;;;;9.20;9.20;;;;;21.93;54.21;99571.59;6313470;20;2764862;-63
2023/05/22 08:41:59;;;;;;;;;7.80;7.20;;;;;22.52;51.94;99566.81;6310214;20;2753445;-63
2023/05/22 08:44:27;;;;;;;;;9.33;8.67;;;;;22.27;53.50;99576.06;6283830;20;2750409;-63
2023/05/22 08:46:58;;;;;;;;;7.33;7.00;;;;;22.66;52.28;99578.91;6310559;20;2733689;-63
2023/05/22 08:49:27;;;;;;;;;11.00;9.00;;;;;22.42;51.78;99579.81;6313143;20;2764954;-63
2023/05/22 08:52:04;;;;;;;;;8.00;8.00;;;;;22.92;51.60;99583.28;6321269;20;2746167;-63
2023/05/22 08:54:35;;;;;;;;;8.00;8.00;;;;;23.61;50.09;99581.59;6342649;20;2745162;-63
2023/05/22 08:57:05;;;;;;;;;10.60;9.00;;;;;23.04;51.06;99578.31;6304109;20;2773290;-63
2023/05/22 08:59:39;;;;;;;;;8.20;8.20;;;;;23.79;50.99;99578.59;6309260;20;2752508;-63
2023/05/22 09:02:09;;;;;;;;;8.00;8.00;;;;;23.83;46.91;99579.94;6313176;20;2747172;-64
2023/05/22 09:04:40;;;;;;;;;6.33;6.33;;;;;24.19;47.19;99582.03;6284477;20;2737946;-63
2023/05/22 09:07:09;;;;;;;;;5.60;5.60;;;;;23.82;50.59;99575.47;6341926;20;2733622;-63
2023/05/22 09:09:41;;;;;;;;;6.67;6.67;;;;;23.68;45.76;99570.78;6318014;20;3460685;-64
2023/05/22 09:12:09;;;;;;;;;10.00;9.00;;;;;23.61;46.38;99578.84;6326330;20;2767005;-63
2023/05/22 09:14:44;;;;;;;;;9.00;9.00;;;;;24.00;46.88;99577.06;6317289;20;2753413;-64
2023/05/22 09:17:16;;;;;;;;;8.00;8.00;;;;;23.37;48.29;99576.28;6316054;20;2744196;-64
2023/05/22 09:19:45;;;;;;;;;10.33;10.33;;;;;24.87;46.99;99574.69;6311803;20;3516961;-63
2023/05/22 09:22:13;;;;;;;;;9.00;8.00;;;;;24.39;45.64;99567.81;6316958;20;2754495;-63
2023/05/22 09:24:46;;;;;;;;;8.00;8.00;;;;;25.12;47.08;99575.25;6313182;20;2738948;-64
2023/05/22 09:27:14;;;;;;;;;10.00;7.67;;;;;25.23;45.93;99567.59;6308365;20;2758815;-64
2023/05/22 09:29:54;;;;;;;;;7.33;7.33;;;;;24.89;45.37;99571.75;6317686;20;2748228;-64
2023/05/22 09:32:22;;;;;;;;;10.33;8.33;;;;;25.11;46.57;99565.28;6317783;20;2768171;-63
2023/05/22 09:34:51;;;;;;;;;9.67;8.33;;;;;24.99;45.73;99561.34;6322201;20;2756657;-64
2023/05/22 09:37:19;;;;;;;;;7.00;7.00;;;;;24.95;46.42;99568.25;6322964;20;2744055;-63
2023/05/22 09:39:50;;;;;;;;;9.00;8.00;;;;;24.29;49.25;99565.31;6312805;20;2739983;-64
2023/05/22 09:42:18;;;;;;;;;7.00;7.00;;;;;24.93;46.14;99562.09;6312215;20;2754460;-64
2023/05/22 09:44:50;;;;;;;;;9.33;9.33;;;;;25.13;46.36;99556.88;6314631;20;3490959;-63
2023/05/22 09:47:18;;;;;;;;;7.33;7.33;;;;;24.71;45.80;99553.75;6316566;20;2754611;-63
2023/05/22 09:49:46;;;;;;;;;7.67;7.67;;;;;24.92;47.30;99553.00;6317723;20;2740978;-64
2023/05/22 09:52:17;;;;;;;;;9.00;8.67;;;;;24.63;48.47;99545.63;6318213;20;2754497;-64
2023/05/22 09:54:54;;;;;;;;;8.00;8.00;;;;;24.86;48.45;99544.69;6314404;20;2750348;-64
2023/05/22 09:57:25;;;;;;;;;22.67;21.33;;;;;24.52;48.96;99548.84;6315661;20;3574284;-64
2023/05/22 09:59:57;;;;;;;;;8.67;7.00;;;;;24.56;49.27;99547.41;6289496;20;2736780;-64
2023/05/22 10:02:26;;;;;;;;;11.00;8.00;;;;;25.10;48.24;99546.25;6316755;20;2761766;-64
2023/05/22 10:04:55;;;;;;;;;9.00;9.00;;;;;24.42;48.46;99542.72;6325403;20;2760758;-64
2023/05/22 10:07:44;;;;;;;;;8.83;8.83;;;;;24.83;49.97;99545.91;6360816;20;1795140;-64
2023/05/22 10:10:17;;;;;;;;;11.00;8.80;;;;;25.18;48.54;99549.78;6327131;20;2769158;-64
2023/05/22 10:12:56;;;;;;;;;7.60;7.60;;;;;25.25;47.50;99544.38;6310597;20;2744043;-64
2023/05/22 10:15:25;;;;;;;;;8.33;8.33;;;;;25.80;46.44;99541.97;6281166;20;2756529;-64
2023/05/22 10:17:54;;;;;;;;;8.67;8.67;;;;;26.14;45.06;99543.19;6312567;20;2748280;-64
2023/05/22 10:20:25;;;;;;;;;6.67;6.67;;;;;26.26;44.16;99538.84;6322862;20;2734719;-64
2023/05/22 10:22:54;;;;;;;;;9.00;9.00;;;;;26.31;44.04;99530.00;6313260;20;2761167;-64
2023/05/22 10:25:22;;;;;;;;;6.33;6.33;;;;;26.01;46.56;99528.28;6316798;20;2742373;-64
2023/05/22 10:27:55;;;;;;;;;7.67;6.33;;;;;26.30;44.35;99531.88;6316163;20;2744089;-64
2023/05/22 10:30:59;;;;;;;;;9.00;7.00;;;;;25.68;44.09;99532.56;6313287;20;2747171;-64
2023/05/22 10:33:38;;;;;;;;;10.40;8.20;;;;;24.74;46.28;99525.06;6335352;20;2759780;-65
2023/05/22 10:36:15;;;;;;;;;8.20;7.80;;;;;24.70;47.43;99519.13;6309353;20;2747265;-64
2023/05/22 10:39:37;;;;;;;;;13.00;9.67;;;;;25.21;47.04;99520.22;6280354;20;3503547;-64
2023/05/22 10:42:12;;;;;;;;;11.00;8.33;;;;;25.87;45.91;99520.09;6315387;20;2767252;-64
2023/05/22 10:44:42;;;;;;;;;7.67;7.67;;;;;25.50;45.34;99522.88;6312321;20;2753502;-64
2023/05/22 10:47:12;;;;;;;;;8.33;8.33;;;;;25.79;45.68;99519.13;6318700;20;2742113;-64
2023/05/22 10:49:46;;;;;;;;;9.33;8.00;;;;;25.23;45.95;99507.13;6317417;20;2759656;-64
2023/05/22 10:52:17;;;;;;;;;7.00;7.00;;;;;24.98;46.92;99504.69;6324819;20;2752394;-64
2023/05/22 10:54:47;;;;;;;;;7.33;7.33;;;;;26.34;44.50;99508.41;6314353;20;2748307;-64
2023/05/22 10:57:17;;;;;;;;;9.67;8.00;;;;;26.61;43.37;99512.19;6309239;20;2757603;-64
2023/05/22 10:59:48;;;;;;;;;9.67;8.67;;;;;26.47;41.12;99508.50;6312905;20;2760761;-64
2023/05/22 11:02:27;;;;;;;;;8.33;8.33;;;;;26.66;43.13;99498.66;6316210;20;2742096;-64
2023/05/22 11:05:17;;;;;;;;;11.67;9.33;;;;;26.25;41.93;99491.19;6311468;20;2778642;-64
2023/05/22 11:07:46;;;;;;;;;8.33;8.33;;;;;26.18;43.77;99500.47;6320965;20;2750311;-64
2023/05/22 11:10:25;;;;;;;;;8.33;8.33;;;;;26.60;41.72;99493.16;6318682;20;2738867;-64
2023/05/22 11:13:26;;;;;;;;;9.00;7.33;;;;;26.97;40.61;99493.75;6313939;20;2744135;-64
2023/05/22 11:15:57;;;;;;;;;8.00;8.00;;;;;26.66;38.41;99492.31;6313079;20;2742012;-64
2023/05/22 11:18:28;;;;;;;;;6.67;6.67;;;;;27.20;39.32;99488.78;6311612;20;2746158;-64
2023/05/22 11:20:59;;;;;;;;;8.67;8.00;;;;;27.40;40.90;99483.31;6313064;20;2758140;-64